Time;durP1;ratioP1;P1;durP2;ratioP2;P2;SDS_P1;SDS_P2;PMS_P1;PMS_P2;Temp;Humidity;BMP_temperature;BMP_pressure;BME280_temperature;BME280_humidity;BME280_pressure;Samples;Min_cycle;Max_cycle;Signal;HPM_P1;HPM_P2
2021/12/01 00:03:04;;;;;;;8.10;4.03;;;1.50;99.90;;;;;;10546285;28;20455;-87
2021/12/01 00:08:26;;;;;;;10.20;5.03;;;1.40;99.90;;;;;;10532424;28;20208;-86
2021/12/01 00:13:48;;;;;;;10.90;3.80;;;1.40;99.90;;;;;;10543457;28;20553;-87
2021/12/01 00:19:10;;;;;;;9.83;3.50;;;1.40;99.90;;;;;;10525773;28;20206;-84
2021/12/01 00:24:33;;;;;;;10.43;4.10;;;1.40;99.90;;;;;;10563800;28;20230;-85
2021/12/01 00:29:56;;;;;;;8.57;4.17;;;1.40;99.90;;;;;;10549503;28;20198;-86
2021/12/01 00:35:18;;;;;;;7.90;3.80;;;1.50;99.90;;;;;;10556903;28;20202;-87
2021/12/01 00:40:41;;;;;;;12.90;5.07;;;1.30;99.90;;;;;;10563825;28;20532;-86
2021/12/01 00:46:12;;;;;;;11.10;5.07;;;1.20;99.90;;;;;;10562606;28;20222;-86
2021/12/01 00:51:35;;;;;;;7.87;3.97;;;1.10;99.90;;;;;;10529328;28;20517;-87
2021/12/01 00:56:57;;;;;;;6.80;4.10;;;1.00;99.90;;;;;;10544646;28;20198;-85
2021/12/01 01:02:19;;;;;;;7.40;3.83;;;0.90;99.90;;;;;;10544284;28;20241;-87
2021/12/01 01:07:41;;;;;;;8.63;3.10;;;0.80;99.90;;;;;;10562352;28;20485;-85
2021/12/01 01:19:02;;;;;;;3.93;2.60;;;0.60;99.90;;;;;;10560729;28;20199;-80
2021/12/01 01:24:24;;;;;;;3.77;2.20;;;0.50;99.90;;;;;;10515876;28;20241;-86
2021/12/01 01:29:46;;;;;;;2.63;1.57;;;0.50;99.90;;;;;;10546901;28;20213;-86
2021/12/01 01:35:08;;;;;;;3.53;2.00;;;0.40;99.90;;;;;;10543620;28;20496;-86
2021/12/01 01:40:30;;;;;;;2.37;1.60;;;0.40;99.90;;;;;;10561698;28;20233;-86
2021/12/01 01:45:53;;;;;;;4.60;2.40;;;0.30;99.90;;;;;;10527476;28;20244;-84
2021/12/01 01:51:18;;;;;;;4.97;2.10;;;0.20;99.90;;;;;;10550692;28;20194;-86
2021/12/01 01:56:40;;;;;;;6.77;2.60;;;0.20;99.90;;;;;;10561078;28;20203;-87
2021/12/01 02:02:04;;;;;;;4.93;2.67;;;0.30;99.90;;;;;;10561088;28;20236;-87
2021/12/01 02:07:26;;;;;;;4.50;2.73;;;0.20;99.90;;;;;;10546197;28;20221;-86
2021/12/01 02:12:48;;;;;;;3.03;2.27;;;0.20;99.90;;;;;;10542774;28;20202;-86
2021/12/01 02:18:10;;;;;;;4.47;2.57;;;0.20;99.90;;;;;;10531462;28;20195;-86
2021/12/01 02:23:35;;;;;;;3.40;2.20;;;0.10;99.90;;;;;;10527572;28;20527;-84
2021/12/01 02:28:59;;;;;;;3.53;1.90;;;0.10;99.90;;;;;;10517193;28;20388;-86
2021/12/01 02:34:24;;;;;;;4.37;1.90;;;0.00;99.90;;;;;;10551554;28;20201;-86
2021/12/01 02:39:49;;;;;;;5.37;2.60;;;;;;;;;;10549619;28;20433;-87
2021/12/01 02:45:11;;;;;;;14.13;7.20;;;-0.30;99.90;;;;;;10563745;28;20231;-81
2021/12/01 02:50:34;;;;;;;25.23;10.43;;;-0.30;99.90;;;;;;10521785;28;20430;-87
2021/12/01 02:56:01;;;;;;;24.20;10.77;;;-0.30;99.90;;;;;;10546794;28;20284;-85
2021/12/01 03:01:24;;;;;;;22.13;8.30;;;-0.40;99.90;;;;;;10552035;28;20198;-84
2021/12/01 03:06:49;;;;;;;9.27;4.50;;;-0.30;99.90;;;;;;10566754;28;20198;-80
2021/12/01 03:12:11;;;;;;;5.30;3.47;;;-0.40;99.90;;;;;;10551023;28;20236;-79
2021/12/01 03:17:33;;;;;;;9.40;5.60;;;-0.40;99.90;;;;;;10550516;28;20231;-78
2021/12/01 03:22:57;;;;;;;14.17;6.30;;;-0.50;99.90;;;;;;10550389;28;20223;-78
2021/12/01 03:28:20;;;;;;;7.63;4.30;;;-0.50;99.90;;;;;;10547677;28;20199;-83
2021/12/01 03:33:43;;;;;;;7.73;3.90;;;-0.50;99.90;;;;;;10547415;28;20201;-82
2021/12/01 03:39:05;;;;;;;8.10;4.17;;;-0.50;99.90;;;;;;10564874;28;20237;-81
2021/12/01 03:44:27;;;;;;;4.77;3.77;;;-0.40;99.90;;;;;;10536229;28;20595;-79
2021/12/01 03:49:50;;;;;;;8.20;3.80;;;-0.50;99.90;;;;;;10558735;28;20200;-78
2021/12/01 03:55:12;;;;;;;5.47;3.00;;;-0.50;99.90;;;;;;10546633;28;20202;-87
2021/12/01 04:00:34;;;;;;;5.53;2.60;;;-0.50;99.90;;;;;;10549742;28;20202;-86
2021/12/01 04:05:57;;;;;;;5.43;2.27;;;-0.50;99.90;;;;;;10546335;28;20226;-87
2021/12/01 04:11:19;;;;;;;4.13;2.43;;;-0.50;99.90;;;;;;10564119;28;20194;-79
2021/12/01 04:16:41;;;;;;;6.30;2.67;;;-0.60;99.90;;;;;;10548046;28;20256;-82
2021/12/01 04:22:04;;;;;;;5.10;3.50;;;-0.80;99.90;;;;;;10548595;28;20496;-86
2021/12/01 04:27:26;;;;;;;7.17;4.00;;;-0.90;99.90;;;;;;10544513;28;20225;-84
2021/12/01 04:32:50;;;;;;;13.40;6.00;;;-0.90;99.90;;;;;;10548119;28;20198;-82
2021/12/01 04:38:12;;;;;;;35.73;13.37;;;-1.00;99.90;;;;;;10562735;28;20590;-83
2021/12/01 04:43:37;;;;;;;39.07;15.40;;;-1.10;99.90;;;;;;10569951;28;20237;-80
2021/12/01 04:48:59;;;;;;;32.23;14.70;;;-1.20;99.90;;;;;;10562468;28;20516;-79
2021/12/01 04:54:22;;;;;;;33.80;15.93;;;-1.30;99.90;;;;;;10529408;28;20383;-79
2021/12/01 04:59:44;;;;;;;31.27;15.70;;;-1.40;99.90;;;;;;10562140;28;20500;-80
2021/12/01 05:05:08;;;;;;;29.30;15.77;;;-1.40;99.90;;;;;;10543827;28;20221;-78
2021/12/01 05:10:30;;;;;;;43.53;18.20;;;-1.40;99.90;;;;;;10562328;28;20195;-79
2021/12/01 05:15:54;;;;;;;39.60;18.00;;;-1.50;99.90;;;;;;10564520;28;20201;-86
2021/12/01 05:21:20;;;;;;;39.73;17.40;;;-1.50;99.90;;;;;;10566484;28;20193;-85
2021/12/01 05:26:42;;;;;;;42.50;17.13;;;-1.60;99.90;;;;;;10545419;28;20248;-80
2021/12/01 05:32:06;;;;;;;42.03;16.50;;;;;;;;;;10561722;28;20492;-80
2021/12/01 05:37:28;;;;;;;49.17;18.53;;;-1.70;99.90;;;;;;10512553;28;20461;-79
2021/12/01 05:42:51;;;;;;;65.27;26.13;;;-1.70;99.90;;;;;;10545178;28;20247;-82
2021/12/01 05:48:14;;;;;;;78.83;30.37;;;-1.70;99.90;;;;;;10545676;28;20208;-85
2021/12/01 05:53:36;;;;;;;85.23;32.67;;;-1.60;99.90;;;;;;10532958;28;20237;-80
2021/12/01 05:58:58;;;;;;;75.27;32.60;;;-1.60;99.90;;;;;;10530528;28;20207;-83
2021/12/01 06:04:23;;;;;;;63.70;31.63;;;-1.50;99.90;;;;;;10530276;28;20299;-84
2021/12/01 06:09:46;;;;;;;68.20;31.47;;;-1.40;99.90;;;;;;10568982;28;20487;-79
2021/12/01 06:15:10;;;;;;;80.07;37.17;;;-1.40;99.90;;;;;;10550181;28;20372;-87
2021/12/01 06:20:32;;;;;;;82.63;33.73;;;-1.40;99.90;;;;;;10568627;28;20265;-86
2021/12/01 06:25:54;;;;;;;74.67;33.43;;;-1.30;99.90;;;;;;10568304;28;20247;-85
2021/12/01 06:31:16;;;;;;;83.20;36.13;;;-1.10;99.90;;;;;;10549820;28;20210;-84
2021/12/01 06:36:39;;;;;;;110.83;45.83;;;-1.10;99.90;;;;;;10567947;28;20229;-85
2021/12/01 06:42:01;;;;;;;87.80;38.60;;;-1.00;99.90;;;;;;10549764;28;20208;-85
2021/12/01 06:47:23;;;;;;;84.93;41.73;;;-0.90;99.90;;;;;;10556052;28;20203;-86
2021/12/01 06:52:48;;;;;;;86.23;44.60;;;-0.80;99.90;;;;;;10535695;28;20210;-85
2021/12/01 06:58:10;;;;;;;89.70;43.57;;;-0.70;99.90;;;;;;10552581;28;20272;-87
2021/12/01 07:03:33;;;;;;;181.77;81.10;;;-0.70;99.90;;;;;;10548901;28;20221;-87
2021/12/01 07:08:59;;;;;;;111.27;54.43;;;-0.60;99.90;;;;;;10531984;28;20201;-84
2021/12/01 07:14:22;;;;;;;75.20;36.60;;;-0.40;99.90;;;;;;10565955;28;20201;-86
2021/12/01 07:19:44;;;;;;;60.47;31.67;;;-0.30;99.90;;;;;;10550107;28;20396;-79
2021/12/01 07:25:07;;;;;;;49.30;27.40;;;-0.30;99.90;;;;;;10565427;28;20260;-79
2021/12/01 07:30:29;;;;;;;45.17;28.17;;;-0.10;99.90;;;;;;10564519;28;20201;-82
2021/12/01 07:35:52;;;;;;;55.30;29.07;;;0.00;99.90;;;;;;10547085;28;20211;-80
2021/12/01 07:41:13;;;;;;;154.10;68.13;;;0.00;99.90;;;;;;10546299;28;20275;-79
2021/12/01 07:46:36;;;;;;;118.17;54.63;;;0.10;99.90;;;;;;10529803;28;20507;-79
2021/12/01 07:51:58;;;;;;;48.37;25.80;;;0.10;99.90;;;;;;10538986;28;20489;-79
2021/12/01 07:57:20;;;;;;;43.90;23.43;;;0.20;99.90;;;;;;10540896;28;20207;-82
2021/12/01 08:02:42;;;;;;;44.00;20.20;;;0.30;99.90;;;;;;10544451;28;20210;-86
2021/12/01 08:08:05;;;;;;;27.67;13.97;;;0.40;99.90;;;;;;10508593;28;20586;-83
2021/12/01 08:13:28;;;;;;;22.67;12.27;;;0.50;99.90;;;;;;10534410;28;20243;-83
2021/12/01 08:18:56;;;;;;;18.77;10.27;;;0.60;99.90;;;;;;10558585;28;20202;-80
2021/12/01 08:24:19;;;;;;;16.03;8.73;;;0.70;99.90;;;;;;10542690;28;20300;-79
2021/12/01 08:29:42;;;;;;;31.60;17.30;;;0.80;99.90;;;;;;10536329;28;20425;-81
2021/12/01 08:35:05;;;;;;;33.00;17.63;;;0.80;99.90;;;;;;10559190;28;20202;-85
2021/12/01 08:40:27;;;;;;;27.60;15.63;;;1.00;99.90;;;;;;10543001;28;20245;-79
2021/12/01 08:45:49;;;;;;;28.13;16.30;;;1.10;99.90;;;;;;10525118;28;20257;-82
2021/12/01 08:51:11;;;;;;;49.70;26.93;;;1.20;99.90;;;;;;10542779;28;20491;-79
2021/12/01 08:56:33;;;;;;;138.97;64.53;;;1.30;99.90;;;;;;10558391;28;20233;-82
2021/12/01 09:01:55;;;;;;;45.00;23.90;;;1.30;99.90;;;;;;10537950;28;20203;-83
2021/12/01 09:07:18;;;;;;;29.60;16.97;;;1.40;99.90;;;;;;10527016;28;20222;-83
2021/12/01 09:12:41;;;;;;;22.77;12.40;;;1.40;99.90;;;;;;10537986;28;20388;-81
2021/12/01 09:18:04;;;;;;;24.50;16.10;;;1.50;99.90;;;;;;10534754;28;20246;-78
2021/12/01 09:23:27;;;;;;;28.83;16.50;;;1.40;99.90;;;;;;10537847;28;20581;-76
2021/12/01 09:28:49;;;;;;;17.27;11.07;;;1.50;99.90;;;;;;10555398;28;20214;-82
2021/12/01 09:34:12;;;;;;;16.77;10.03;;;1.60;99.90;;;;;;10537403;28;20198;-82
2021/12/01 09:39:34;;;;;;;19.97;11.30;;;1.50;99.90;;;;;;10525402;28;20568;-80
2021/12/01 09:44:57;;;;;;;24.90;13.50;;;1.50;99.90;;;;;;10548477;28;20226;-81
2021/12/01 09:50:20;;;;;;;19.63;11.30;;;1.40;99.90;;;;;;10540646;28;20210;-88
2021/12/01 09:55:43;;;;;;;22.23;14.43;;;1.40;99.90;;;;;;10527578;28;20202;-82
2021/12/01 10:01:12;;;;;;;21.70;12.70;;;1.40;99.90;;;;;;10520748;28;20242;-80
2021/12/01 10:06:35;;;;;;;24.47;15.43;;;1.40;99.90;;;;;;10563320;28;20293;-81
2021/12/01 10:12:06;;;;;;;25.80;16.93;;;1.40;99.90;;;;;;10511835;28;20198;-83
2021/12/01 10:17:35;;;;;;;31.60;19.10;;;1.40;99.90;;;;;;10528015;28;20492;-84
2021/12/01 10:23:11;;;;;;;30.60;19.10;;;1.40;99.90;;;;;;10530736;28;20562;-82
2021/12/01 10:28:40;;;;;;;22.43;13.83;;;1.40;99.90;;;;;;10528853;28;20381;-83
2021/12/01 10:34:36;;;;;;;56.77;29.43;;;1.40;99.90;;;;;;10543967;28;20244;-82
2021/12/01 10:40:07;;;;;;;26.10;15.77;;;1.50;99.90;;;;;;10499146;28;20631;-84
2021/12/01 10:45:38;;;;;;;22.60;14.37;;;1.50;99.90;;;;;;10514525;28;20242;-84
2021/12/01 10:51:00;;;;;;;37.47;18.33;;;1.40;99.90;;;;;;10482869;28;20206;-83
2021/12/01 10:56:22;;;;;;;37.80;18.30;;;1.40;99.90;;;;;;10518993;28;20219;-83
2021/12/01 11:01:45;;;;;;;30.43;17.67;;;1.40;99.90;;;;;;10513029;28;20199;-79
2021/12/01 11:07:30;;;;;;;31.50;16.20;;;1.50;99.90;;;;;;10479016;28;20227;-84
2021/12/01 11:12:56;;;;;;;58.70;27.93;;;1.60;99.90;;;;;;10496429;28;20407;-79
2021/12/01 11:18:22;;;;;;;38.70;18.17;;;1.60;99.90;;;;;;10487616;28;20403;-83
2021/12/01 11:24:01;;;;;;;38.33;20.50;;;1.70;99.90;;;;;;10500032;28;20563;-86
2021/12/01 11:29:23;;;;;;;49.43;27.17;;;1.70;99.90;;;;;;10489838;28;20402;-85
2021/12/01 11:34:45;;;;;;;54.93;29.53;;;1.80;99.90;;;;;;10503672;28;20283;-86
2021/12/01 11:40:08;;;;;;;32.87;21.77;;;1.90;99.90;;;;;;10550468;28;20292;-81
2021/12/01 11:45:30;;;;;;;20.77;14.40;;;1.80;99.90;;;;;;10508846;28;20234;-81
2021/12/01 11:51:01;;;;;;;17.03;10.20;;;1.70;99.90;;;;;;10507887;28;20194;-79
2021/12/01 11:56:28;;;;;;;34.90;17.57;;;1.70;99.90;;;;;;10513083;28;20289;-79
2021/12/01 12:02:13;;;;;;;21.73;13.10;;;1.70;99.90;;;;;;10540806;28;20224;-78
2021/12/01 12:07:37;;;;;;;19.07;12.57;;;1.70;99.90;;;;;;10539957;28;20264;-80
2021/12/01 12:13:04;;;;;;;26.13;11.77;;;1.80;99.90;;;;;;10532321;28;20199;-84
2021/12/01 12:18:34;;;;;;;37.53;14.30;;;1.70;99.90;;;;;;10529952;28;20221;-77
2021/12/01 12:24:05;;;;;;;15.17;11.37;;;1.70;99.90;;;;;;10546979;28;20242;-81
2021/12/01 12:29:29;;;;;;;17.07;12.50;;;1.60;99.90;;;;;;10524257;28;20209;-78
2021/12/01 12:34:57;;;;;;;17.63;11.63;;;1.60;99.90;;;;;;10525842;28;20248;-78
2021/12/01 12:40:19;;;;;;;21.20;11.63;;;1.60;99.90;;;;;;10492812;28;20456;-77
2021/12/01 12:46:19;;;;;;;23.47;13.30;;;1.70;99.90;;;;;;10501338;28;20250;-79
2021/12/01 12:51:41;;;;;;;22.43;13.77;;;1.60;99.90;;;;;;10476114;28;20254;-77
2021/12/01 12:57:07;;;;;;;24.37;13.40;;;1.60;99.90;;;;;;10465438;28;20398;-87
2021/12/01 13:02:31;;;;;;;18.13;12.20;;;1.50;99.90;;;;;;10465797;28;20489;-77
2021/12/01 13:07:55;;;;;;;19.87;12.40;;;1.50;99.90;;;;;;10514430;28;20396;-84
2021/12/01 13:13:27;;;;;;;25.23;13.37;;;1.40;99.90;;;;;;10478390;28;20199;-77
2021/12/01 13:18:51;;;;;;;25.90;14.07;;;1.30;99.90;;;;;;10492521;28;20479;-81
2021/12/01 13:24:14;;;;;;;20.93;12.17;;;1.50;99.90;;;;;;10506107;28;20227;-83
2021/12/01 13:29:36;;;;;;;27.93;14.13;;;1.50;99.90;;;;;;10515412;28;20217;-84
2021/12/01 13:34:58;;;;;;;30.13;15.17;;;1.40;99.90;;;;;;10484691;28;20513;-87
2021/12/01 13:40:25;;;;;;;20.33;13.47;;;1.50;99.90;;;;;;10547669;28;20328;-81
2021/12/01 13:46:17;;;;;;;19.90;13.47;;;1.40;99.90;;;;;;10538400;28;20222;-83
2021/12/01 13:51:42;;;;;;;17.37;12.20;;;1.30;99.90;;;;;;10524387;28;20197;-82
2021/12/01 13:57:06;;;;;;;17.20;12.37;;;1.30;99.90;;;;;;10541989;28;20213;-85
2021/12/01 14:02:30;;;;;;;15.00;10.87;;;1.30;99.90;;;;;;10539897;28;20222;-84
2021/12/01 14:08:01;;;;;;;15.73;11.07;;;1.30;99.90;;;;;;10539166;28;20233;-84
2021/12/01 14:13:24;;;;;;;15.10;10.20;;;1.40;99.90;;;;;;10537334;28;20564;-84
2021/12/01 14:18:47;;;;;;;15.33;10.97;;;1.30;99.90;;;;;;10523103;28;20366;-77
2021/12/01 14:24:30;;;;;;;16.17;11.50;;;1.30;99.90;;;;;;10554954;28;20235;-76
2021/12/01 14:29:56;;;;;;;14.10;9.77;;;1.20;99.90;;;;;;10527265;28;20281;-78
2021/12/01 14:35:21;;;;;;;15.37;10.57;;;1.20;99.90;;;;;;10543220;28;20210;-80
2021/12/01 14:40:54;;;;;;;10.20;7.30;;;1.30;99.90;;;;;;10562296;28;20461;-80
2021/12/01 14:46:18;;;;;;;12.57;8.00;;;1.20;99.90;;;;;;10516105;28;20434;-82
2021/12/01 14:51:52;;;;;;;19.53;12.07;;;1.20;99.90;;;;;;10514820;28;20293;-79
2021/12/01 14:57:15;;;;;;;21.27;13.50;;;1.20;99.90;;;;;;10542697;28;20209;-78
2021/12/01 15:02:39;;;;;;;17.93;10.67;;;1.20;99.90;;;;;;10522584;28;20267;-75
2021/12/01 15:08:07;;;;;;;11.43;8.37;;;1.30;99.90;;;;;;10542502;28;20223;-80
2021/12/01 15:13:36;;;;;;;11.00;7.63;;;1.40;99.90;;;;;;10513077;28;20469;-82
2021/12/01 15:19:02;;;;;;;20.37;11.20;;;1.40;99.90;;;;;;10539090;28;20223;-81
2021/12/01 15:24:26;;;;;;;19.60;11.73;;;1.40;99.90;;;;;;10533188;28;20230;-82
2021/12/01 15:29:48;;;;;;;20.20;12.87;;;1.30;99.90;;;;;;10545532;28;20205;-77
2021/12/01 15:35:11;;;;;;;31.40;16.83;;;1.40;99.90;;;;;;10545643;28;20231;-82
2021/12/01 15:40:34;;;;;;;17.20;11.40;;;1.40;99.90;;;;;;10526583;28;20232;-81
2021/12/01 15:45:56;;;;;;;17.30;10.10;;;1.40;99.90;;;;;;10558591;28;20414;-82
2021/12/01 15:51:18;;;;;;;16.07;9.40;;;1.50;99.90;;;;;;10542017;28;20208;-94
2021/12/01 15:56:41;;;;;;;14.87;9.47;;;1.50;99.90;;;;;;10505782;28;20221;-80
2021/12/01 16:02:03;;;;;;;17.80;9.03;;;1.50;99.90;;;;;;10558888;28;20381;-82
2021/12/01 16:07:27;;;;;;;13.77;9.50;;;1.50;99.90;;;;;;10544159;28;20268;-82
2021/12/01 16:12:49;;;;;;;14.10;9.23;;;1.50;99.90;;;;;;10546217;28;20219;-82
2021/12/01 16:18:11;;;;;;;16.63;10.33;;;1.50;99.90;;;;;;10562950;28;20208;-82
2021/12/01 16:23:36;;;;;;;17.90;11.23;;;1.50;99.90;;;;;;10542424;28;20201;-80
2021/12/01 16:28:58;;;;;;;18.17;10.63;;;1.50;99.90;;;;;;10526576;28;20240;-83
2021/12/01 16:34:20;;;;;;;18.57;9.83;;;1.60;99.90;;;;;;10530368;28;20200;-79
2021/12/01 16:39:43;;;;;;;16.90;9.90;;;1.60;99.90;;;;;;10561822;28;20425;-82
2021/12/01 16:45:06;;;;;;;26.77;14.47;;;1.50;99.90;;;;;;10547274;28;20297;-82
2021/12/01 16:50:29;;;;;;;48.57;26.10;;;1.50;99.90;;;;;;10529888;28;20204;-83
2021/12/01 16:55:51;;;;;;;40.53;20.63;;;1.50;99.90;;;;;;10546514;28;20279;-83
2021/12/01 17:01:14;;;;;;;31.20;18.07;;;1.60;99.90;;;;;;10527083;28;20221;-80
2021/12/01 17:06:38;;;;;;;34.30;20.40;;;1.60;99.90;;;;;;10530018;28;20236;-78
2021/12/01 17:12:01;;;;;;;24.43;12.63;;;1.50;99.90;;;;;;10561812;28;20489;-83
2021/12/01 17:17:24;;;;;;;18.73;10.67;;;1.60;99.90;;;;;;10529990;28;20212;-83
2021/12/01 17:22:46;;;;;;;25.37;13.80;;;1.70;99.90;;;;;;10562023;28;20264;-84
2021/12/01 17:28:08;;;;;;;20.80;12.73;;;1.70;99.90;;;;;;10538448;28;20220;-83
2021/12/01 17:33:31;;;;;;;19.50;11.60;;;1.70;99.90;;;;;;10543701;28;20198;-77
2021/12/01 17:38:53;;;;;;;55.20;27.67;;;1.80;99.90;;;;;;10540530;28;20249;-79
2021/12/01 17:44:15;;;;;;;37.50;22.10;;;1.90;99.90;;;;;;10543198;28;20218;-77
2021/12/01 17:49:39;;;;;;;54.60;30.90;;;1.80;99.90;;;;;;10561071;28;20194;-79
2021/12/01 17:55:03;;;;;;;37.80;22.23;;;1.90;99.90;;;;;;10561453;28;20233;-80
2021/12/01 18:00:26;;;;;;;31.53;17.40;;;1.90;99.90;;;;;;10524096;28;20195;-80
2021/12/01 18:05:48;;;;;;;28.90;17.63;;;1.90;99.90;;;;;;10569252;28;20279;-78
2021/12/01 18:11:14;;;;;;;26.07;13.60;;;2.00;99.90;;;;;;10553506;28;20221;-79
2021/12/01 18:16:38;;;;;;;23.40;12.90;;;2.00;99.90;;;;;;10553695;28;20198;-84
2021/12/01 18:22:00;;;;;;;35.63;20.10;;;2.10;99.90;;;;;;10550059;28;20559;-80
2021/12/01 18:27:22;;;;;;;49.67;28.90;;;2.10;99.90;;;;;;10534689;28;20229;-82
2021/12/01 18:32:44;;;;;;;58.53;29.50;;;2.10;99.90;;;;;;10568107;28;20202;-78
2021/12/01 18:38:06;;;;;;;54.50;28.43;;;2.20;99.90;;;;;;10547100;28;20294;-82
2021/12/01 18:43:28;;;;;;;45.13;22.27;;;2.20;99.90;;;;;;10567650;28;20195;-83
2021/12/01 18:48:50;;;;;;;47.07;24.60;;;2.40;99.90;;;;;;10567389;28;20196;-83
2021/12/01 18:54:13;;;;;;;32.17;19.83;;;2.40;99.90;;;;;;10566398;28;20269;-84
2021/12/01 18:59:35;;;;;;;33.50;19.93;;;2.40;99.90;;;;;;10567143;28;20222;-80
2021/12/01 19:04:57;;;;;;;40.80;24.40;;;2.50;99.90;;;;;;10551937;28;20223;-82
2021/12/01 19:10:24;;;;;;;43.73;24.40;;;2.50;99.90;;;;;;10548161;28;20198;-82
2021/12/01 19:15:47;;;;;;;37.10;21.77;;;2.60;99.90;;;;;;10565484;28;20208;-81
2021/12/01 19:21:11;;;;;;;27.47;19.77;;;2.60;99.90;;;;;;10563841;28;20201;-81
2021/12/01 19:26:35;;;;;;;28.80;21.33;;;2.60;99.90;;;;;;10563856;28;21132;-82
2021/12/01 19:31:58;;;;;;;30.50;20.30;;;2.70;99.90;;;;;;10548039;28;20256;-83
2021/12/01 19:37:20;;;;;;;23.23;17.83;;;2.80;99.90;;;;;;10533448;28;20470;-83
2021/12/01 19:42:43;;;;;;;21.70;17.20;;;2.80;99.90;;;;;;10533343;28;20481;-81
2021/12/01 19:48:22;;;;;;;29.67;18.17;;;2.80;99.90;;;;;;10558330;28;20402;-81
2021/12/01 19:53:44;;;;;;;23.43;16.33;;;2.90;99.90;;;;;;10550320;28;20191;-83
2021/12/01 19:59:07;;;;;;;21.80;16.10;;;2.90;99.90;;;;;;10532710;28;20294;-82
2021/12/01 20:04:28;;;;;;;21.87;17.00;;;3.00;99.90;;;;;;10546427;28;20281;-81
2021/12/01 20:09:53;;;;;;;24.00;17.90;;;3.10;99.90;;;;;;10549557;28;20198;-78
2021/12/01 20:15:24;;;;;;;23.00;16.60;;;3.20;99.90;;;;;;10530761;28;20194;-76
2021/12/01 20:20:47;;;;;;;23.23;17.10;;;3.20;99.90;;;;;;10563444;28;20195;-77
2021/12/01 20:26:11;;;;;;;20.40;15.90;;;3.30;99.90;;;;;;10531706;28;20230;-82
2021/12/01 20:31:36;;;;;;;22.30;16.53;;;3.40;99.90;;;;;;10548323;28;20433;-78
2021/12/01 20:37:01;;;;;;;17.83;15.50;;;3.50;99.90;;;;;;10548632;28;20258;-81
2021/12/01 20:42:26;;;;;;;19.17;16.47;;;3.50;99.90;;;;;;10563109;28;20198;-78
2021/12/01 20:58:51;;;;;;;25.07;17.47;;;3.70;99.90;;;;;;10544246;28;20202;-76
2021/12/01 21:04:26;;;;;;;26.93;18.30;;;3.70;99.90;;;;;;10561890;28;20275;-76
2021/12/01 21:09:54;;;;;;;30.17;20.63;;;3.90;99.90;;;;;;10543975;28;20202;-78
2021/12/01 21:15:17;;;;;;;27.03;17.03;;;4.00;99.90;;;;;;10541525;28;20212;-79
2021/12/01 21:20:42;;;;;;;21.40;14.57;;;4.10;99.90;;;;;;10542861;28;20222;-79
2021/12/01 21:26:04;;;;;;;19.50;14.23;;;4.20;99.90;;;;;;10529694;28;20264;-77
2021/12/01 21:31:27;;;;;;;19.13;13.47;;;4.20;99.90;;;;;;10561274;28;20424;-76
2021/12/01 21:36:50;;;;;;;18.20;14.07;;;4.20;99.90;;;;;;10564809;28;20231;-77
2021/12/01 21:42:13;;;;;;;21.87;14.97;;;4.30;99.90;;;;;;10570076;28;20249;-81
2021/12/01 21:47:35;;;;;;;19.50;13.73;;;4.30;99.90;;;;;;10550675;28;20229;-79
2021/12/01 21:53:04;;;;;;;15.97;12.33;;;4.30;99.90;;;;;;10551498;28;20202;-80
2021/12/01 21:58:32;;;;;;;16.03;13.07;;;4.30;99.90;;;;;;10569597;28;20228;-76
2021/12/01 22:03:57;;;;;;;14.03;10.70;;;4.30;99.90;;;;;;10569275;28;20208;-77
2021/12/01 22:09:22;;;;;;;16.00;11.70;;;4.40;99.90;;;;;;10569288;28;20228;-82
2021/12/01 22:14:45;;;;;;;14.93;10.97;;;4.40;99.90;;;;;;10568674;28;20196;-82
2021/12/01 22:20:08;;;;;;;17.47;11.83;;;4.40;99.90;;;;;;10542410;28;20252;-82
2021/12/01 22:25:31;;;;;;;15.37;10.73;;;4.40;99.90;;;;;;10550178;28;20229;-78
2021/12/01 22:30:54;;;;;;;11.83;9.50;;;4.40;99.90;;;;;;10549824;28;20278;-78
2021/12/01 22:36:18;;;;;;;10.73;9.23;;;4.50;99.90;;;;;;10567748;28;20229;-79
2021/12/01 22:41:42;;;;;;;14.53;8.90;;;4.40;99.90;;;;;;10549645;28;20200;-78
2021/12/01 22:47:07;;;;;;;11.17;9.43;;;4.40;99.90;;;;;;10533131;28;20227;-77
2021/12/01 22:52:29;;;;;;;10.73;9.23;;;4.30;99.90;;;;;;10552411;28;20262;-82
2021/12/01 22:57:54;;;;;;;9.83;8.83;;;4.40;99.90;;;;;;10552196;28;20400;-82
2021/12/01 23:03:20;;;;;;;15.03;9.43;;;4.40;99.90;;;;;;10534804;28;20220;-83
2021/12/01 23:08:43;;;;;;;10.37;8.07;;;4.40;99.90;;;;;;10567078;28;20219;-83
2021/12/01 23:14:05;;;;;;;12.23;8.10;;;4.50;99.90;;;;;;10566529;28;20260;-83
2021/12/01 23:19:27;;;;;;;9.73;7.60;;;4.50;99.90;;;;;;10534166;28;20200;-83
2021/12/01 23:30:30;;;;;;;11.43;8.23;;;4.40;99.90;;;;;;10558791;28;20204;-78
2021/12/01 23:35:52;;;;;;;9.07;7.47;;;4.40;99.90;;;;;;10539416;28;20204;-81
2021/12/01 23:41:18;;;;;;;12.00;7.63;;;4.50;99.90;;;;;;10565676;28;20599;-81
2021/12/01 23:52:44;;;;;;;8.40;6.70;;;4.70;99.90;;;;;;10524708;28;20210;-77
2021/12/01 23:57:59;;;;;;;8.00;6.47;;;4.70;99.90;;;;;;10531254;28;20222;-81
